Latest Weather Observations for Bourke

IDN60801

Issued at 6:05 pm EDT Saturday 29 November 2014 (issued every 30 minutes, with the page automatically refreshed every 10 minutes)

About weather observations | Map of weather stations | Latest weather observations for NSW | Other Formats
Station Details ID: 048245 Name: BOURKE AIRPORT AWS Lat: -30.04 Lon: 145.95 Height: 107.3 m
Data from the previous 72 hours. | See also: Recent months at Bourke
Date/Time
EDT
Temp
°C
App
Temp
°C
Dew
Point
Rel
Hum
%
Delta-T
°C
Wind Press
QNH
hPa
Press
MSL
hPa
Rain
since 9 am
mm
Dir
 
Spd
km/h
Gust
km/h
Spd
kts
Gust
kts
29/06:00pm - - - - - N 28 33 15 18 1008.0 1007.5 0.0
29/05:30pm - - - - - WNW 19 28 10 15 1009.2 1008.7 0.0
29/05:00pm - - - - - W 20 41 11 22 1009.8 1009.2 0.0
29/04:54pm - - - - - W 28 41 15 22 1009.7 1009.1 0.0
29/04:30pm - - - - - N 17 20 9 11 1008.4 1007.9 0.0
29/04:00pm - - - - - NNW 24 32 13 17 1008.9 1008.4 0.0
29/03:30pm - - - - - WSW 13 24 7 13 1009.0 1008.5 0.0
29/03:00pm - - - - - NNE 19 26 10 14 1008.6 1008.1 0.0
29/02:30pm - - - - - NE 17 30 9 16 1009.8 1009.2 0.0
29/02:00pm - - - - - NNE 19 32 10 17 1010.5 1009.9 0.0
29/01:30pm - - - - - NNE 19 35 10 19 1011.1 1010.5 0.0
29/01:00pm - - - - - NE 22 30 12 16 1011.7 1011.1 0.0
29/12:30pm - - - - - N 20 35 11 19 1012.3 1011.8 0.0
29/12:00pm - - - - - NNW 19 33 10 18 1012.8 1012.3 0.0
29/11:30am - - - - - N 19 30 10 16 1013.2 1012.7 0.0
29/11:00am - - - - - N 22 32 12 17 1013.5 1013.0 0.0
29/10:30am - - - - - N 24 39 13 21 1013.8 1013.3 0.0
29/10:00am - - - - - NNE 26 37 14 20 1013.9 1013.4 0.0
29/09:30am - - - - - NNE 26 39 14 21 1014.2 1013.7 0.0
29/09:00am - - - - - NNE 30 43 16 23 1014.3 1013.8 0.0
29/08:30am - - - - - NNE 30 41 16 22 1014.3 1013.8 0.0
29/08:00am - - - - - NE 28 39 15 21 1014.3 1013.8 0.0
29/07:30am - - - - - NE 26 37 14 20 1014.2 1013.7 0.0
29/07:00am - - - - - NE 24 33 13 18 1013.9 1013.4 0.0
29/06:30am - - - - - NE 22 33 12 18 1013.6 1013.1 0.0
29/06:00am - - - - - NE 20 30 11 16 1013.3 1012.8 0.0
29/05:30am - - - - - NE 24 32 13 17 1012.9 1012.4 0.0
29/05:00am - - - - - ENE 22 30 12 16 1012.6 1012.1 0.0
29/04:30am - - - - - NE 24 33 13 18 1012.3 1011.8 0.0
29/04:00am - - - - - NE 24 33 13 18 1011.8 1011.2 0.0
29/03:30am - - - - - ENE 20 30 11 16 1011.9 1011.3 0.0
29/03:00am - - - - - NE 13 15 7 8 1011.5 1010.9 0.0
29/02:30am - - - - - NE 11 13 6 7 1011.6 1011.0 0.0
29/02:00am - - - - - ENE 11 15 6 8 1011.8 1011.2 0.0
29/01:30am - - - - - ENE 17 20 9 11 1012.0 1011.5 0.0
29/01:00am - - - - - ENE 19 26 10 14 1012.0 1011.5 0.0
29/12:30am - - - - - E 13 17 7 9 1012.2 1011.7 0.0
29/12:00am - - - - - E 13 17 7 9 1012.3 1011.8 0.0
 
Date/Time
EDT
Temp
°C
App
Temp
°C
Dew
Point
Rel
Hum
%
Delta-T
°C
Wind Press
QNH
hPa
Press
MSL
hPa
Rain
since 9 am
mm
Dir
 
Spd
km/h
Gust
km/h
Spd
kts
Gust
kts
28/11:30pm - - - - - E 17 22 9 12 1012.3 1011.8 0.0
28/11:00pm - - - - - E 19 24 10 13 1012.3 1011.8 0.0
28/10:30pm - - - - - E 15 20 8 11 1012.3 1011.8 0.0
28/10:00pm - - - - - E 15 20 8 11 1012.2 1011.7 0.0
28/09:30pm - - - - - ESE 15 20 8 11 1011.9 1011.3 0.0
28/09:00pm - - - - - ESE 13 17 7 9 1011.6 1011.0 0.0
28/08:30pm - - - - - SE 11 13 6 7 1011.2 1010.6 0.0
28/08:00pm - - - - - ESE 15 20 8 11 1010.9 1010.3 0.0
28/07:30pm - - - - - ESE 15 22 8 12 1010.8 1010.2 0.0
28/07:00pm - - - - - SE 11 17 6 9 1010.6 1010.0 0.0
28/06:30pm - - - - - E 11 22 6 12 1010.5 1009.9 0.0
28/06:00pm - - - - - ESE 19 24 10 13 1010.4 1009.8 0.0
28/05:30pm - - - - - E 9 13 5 7 1010.6 1010.0 0.0
28/05:00pm - - - - - E 19 26 10 14 1010.9 1010.3 0.0
28/04:30pm - - - - - NE 9 15 5 8 1011.3 1010.7 0.0
28/04:00pm - - - - - SSE 11 19 6 10 1011.7 1011.1 0.0
28/03:30pm - - - - - NE 17 19 9 10 1012.2 1011.7 0.0
28/03:00pm - - - - - E 20 30 11 16 1012.6 1012.1 0.0
28/02:30pm - - - - - E 24 33 13 18 1013.0 1012.5 0.0
28/02:00pm - - - - - ESE 13 30 7 16 1013.5 1013.0 0.0
28/01:30pm - - - - - E 15 26 8 14 1014.1 1013.6 0.0
28/01:00pm - - - - - SE 22 33 12 18 1014.7 1014.2 0.0
28/12:30pm - - - - - ENE 19 28 10 15 1015.3 1014.8 0.0
28/12:00pm - - - - - E 20 33 11 18 1015.5 1015.0 0.0
28/11:30am - - - - - E 17 28 9 15 1015.9 1015.4 0.0
28/11:00am - - - - - E 20 30 11 16 1016.2 1015.7 0.0
28/10:30am - - - - - ENE 22 35 12 19 1016.3 1015.8 0.0
28/10:00am - - - - - E 24 33 13 18 1016.2 1015.7 0.0
28/09:30am - - - - - ENE 24 35 13 19 1016.3 1015.8 0.0
28/09:00am - - - - - ENE 26 37 14 20 1016.4 1015.9 0.0
28/08:30am - - - - - E 24 37 13 20 1016.2 1015.7 0.0
28/08:00am - - - - - E 24 33 13 18 1016.0 1015.5 0.0
28/07:30am - - - - - E 19 26 10 14 1015.8 1015.3 0.0
28/07:00am - - - - - E 15 20 8 11 1015.4 1014.9 0.0
28/06:30am - - - - - E 13 20 7 11 1015.1 1014.6 0.0
28/06:00am - - - - - E 13 19 7 10 1014.8 1014.3 0.0
28/05:30am - - - - - E 11 17 6 9 1014.5 1014.0 0.0
28/05:00am - - - - - E 9 13 5 7 1014.2 1013.7 0.0
28/04:30am - - - - - E 13 17 7 9 1013.9 1013.4 0.0
28/04:00am - - - - - E 11 17 6 9 1013.8 1013.3 0.0
28/03:30am - - - - - ESE 11 15 6 8 1013.9 1013.4 0.0
28/03:00am - - - - - SSE 11 15 6 8 1014.0 1013.5 0.0
28/02:30am - - - - - ESE 7 9 4 5 1014.2 1013.7 0.0
28/02:00am - - - - - SW 7 7 4 4 1014.1 1013.6 0.0
28/01:30am - - - - - SW 9 13 5 7 1014.3 1013.8 0.0
28/01:00am - - - - - SSW 7 7 4 4 1014.3 1013.8 0.0
28/12:30am - - - - - S 6 7 3 4 1014.6 1014.1 0.0
28/12:00am - - - - - SSE 6 7 3 4 1014.8 1014.3 0.0
 
Date/Time
EDT
Temp
°C
App
Temp
°C
Dew
Point
Rel
Hum
%
Delta-T
°C
Wind Press
QNH
hPa
Press
MSL
hPa
Rain
since 9 am
mm
Dir
 
Spd
km/h
Gust
km/h
Spd
kts
Gust
kts
27/11:30pm - - - - - SE 6 7 3 4 1014.9 1014.4 0.0
27/11:00pm - - - - - SE 7 9 4 5 1014.9 1014.4 0.0
27/10:30pm - - - - - SE 7 11 4 6 1014.8 1014.3 0.0
27/10:00pm - - - - - S 9 9 5 5 1014.6 1014.1 0.0
27/09:30pm - - - - - S 7 9 4 5 1014.4 1013.9 0.0
27/09:00pm - - - - - SSW 4 7 2 4 1014.2 1013.7 0.0
27/08:30pm - - - - - SSW 7 9 4 5 1014.0 1013.5 0.0
27/08:00pm - - - - - S 9 13 5 7 1013.8 1013.3 0.0
27/07:30pm - - - - - SSW 7 11 4 6 1013.5 1013.0 0.0
27/07:00pm - - - - - SSW 13 20 7 11 1013.3 1012.8 0.0
27/06:30pm - - - - - S 17 24 9 13 1013.2 1012.7 0.0
27/06:00pm - - - - - SSW 15 22 8 12 1013.1 1012.6 0.0
27/05:30pm - - - - - SE 13 20 7 11 1013.2 1012.7 0.0
27/05:00pm - - - - - SSW 13 20 7 11 1013.3 1012.8 0.0
27/04:30pm - - - - - WSW 13 26 7 14 1013.9 1013.4 0.0
27/04:00pm - - - - - S 20 28 11 15 1014.2 1013.7 0.0
27/03:30pm - - - - - SE 11 20 6 11 1014.6 1014.1 0.0
27/03:00pm - - - - - SSW 17 33 9 18 1015.1 1014.6 0.0
27/02:30pm - - - - - SSW 13 22 7 12 1015.5 1015.0 0.0
27/02:00pm - - - - - SSW 19 35 10 19 1015.8 1015.3 0.0
27/01:30pm - - - - - SW 13 20 7 11 1016.1 1015.6 0.0
27/01:00pm - - - - - W 11 22 6 12 1016.5 1016.0 0.0
27/12:30pm - - - - - S 20 28 11 15 1016.9 1016.4 0.0
27/12:00pm - - - - - S 20 28 11 15 1017.2 1016.7 0.0
27/11:30am - - - - - SSE 15 26 8 14 1017.4 1016.9 0.0
27/11:00am 30.9 26.1 0.3 14 14.8 SSE 15 24 8 13 1017.7 1017.2 0.0
27/10:30am 29.3 24.6 0.9 16 13.8 SSE 15 28 8 15 1017.9 1017.4 0.0
27/10:00am 28.2 22.9 1.7 18 12.9 ESE 19 24 10 13 1017.8 1017.3 0.0
27/09:30am - - - - - SE 20 30 11 16 1017.9 1017.4 0.0
27/09:22am -44.3 -52.5 -59.7 17 0.1 SE 22 28 12 15 1017.8 1017.3 0.0
27/09:20am -38.8 -47.0 -51.3 26 0.1 SE 22 28 12 15 1017.8 1017.3 0.0
27/09:16am -46.9 - 2.1 - - SE 22 32 12 17 1017.8 1017.3 0.0
27/09:00am 25.9 20.4 1.9 21 11.5 SE 20 30 11 16 1017.7 1017.2 0.0
27/08:39am 25.0 18.6 -1.6 17 11.9 SSE 22 28 12 15 1017.6 1017.1 0.0
27/08:38am 10.9 3.0 -25.2 6 8.3 SSE 22 28 12 15 1017.6 1017.1 0.0
27/08:30am 24.4 18.6 2.5 24 10.6 SSE 22 30 12 16 1017.6 1017.1 0.0
27/08:00am - - - - - SSE 22 28 12 15 1017.5 1017.0 0.0
27/07:30am - - - - - SSE 17 24 9 13 1017.2 1016.7 0.0
27/07:00am - - - - - SSE 13 19 7 10 1017.0 1016.5 0.0
27/06:30am - - - - - SSE 13 15 7 8 1016.8 1016.3 0.0
27/06:00am - - - - - S 13 15 7 8 1016.8 1016.3 0.0
27/05:30am - - - - - S 13 17 7 9 1016.4 1015.9 0.0
27/05:00am - - - - - S 13 17 7 9 1016.2 1015.7 0.0
27/04:30am - - - - - S 13 15 7 8 1015.7 1015.2 0.0
27/04:00am - - - - - SSE 11 13 6 7 1015.5 1015.0 0.0
27/03:32am 5.8 -0.7 -13.2 24 5.3 SSE 17 20 9 11 1015.4 1014.9 0.0
27/03:31am 11.9 5.8 -8.0 24 6.8 SSE 17 20 9 11 1015.4 1014.9 0.0
27/03:30am 20.3 15.0 -0.9 24 9.3 SSE 17 20 9 11 1015.4 1014.9 0.0
27/03:27am 20.5 15.2 -0.7 24 9.3 SSE 17 20 9 11 1015.4 1014.9 0.0
27/03:26am 14.9 9.0 -5.5 24 7.7 SSE 17 22 9 12 1015.4 1014.9 0.0
27/03:24am 20.6 14.4 -9.4 12 11.1 SSE 17 22 9 12 1015.4 1014.9 0.0
27/03:22am -8.9 -15.8 -23.6 29 2.1 SSE 17 22 9 12 1015.4 1014.9 0.0
27/03:18am -24.1 -31.2 -36.1 32 0.5 SSE 17 22 9 12 1015.3 1014.8 0.0
27/03:10am -37.3 -44.1 -50.3 25 0.2 S 15 22 8 12 1015.3 1014.8 0.0
27/03:09am -46.4 -53.2 -58.3 25 0.1 S 15 22 8 12 1015.3 1014.8 0.0
27/03:06am -31.0 -37.4 -47.9 18 0.4 S 13 22 7 12 1015.3 1014.8 0.0
27/03:05am -22.8 -29.2 -37.3 25 0.7 S 13 22 7 12 1015.3 1014.8 0.0
27/03:04am 0.9 -5.2 -20.2 19 4.6 S 13 17 7 9 1015.3 1014.8 0.0
27/03:00am 19.3 14.7 -1.2 25 8.8 S 13 15 7 8 1015.4 1014.9 0.0
27/02:55am 18.6 14.3 -1.8 25 8.6 S 11 15 6 8 1015.4 1014.9 0.0
27/02:52am -14.5 -20.4 -27.5 32 1.3 S 11 15 6 8 1015.3 1014.8 0.0
27/02:51am 19.1 14.0 -9.7 13 10.4 S 11 15 6 8 1015.3 1014.8 0.0
27/02:49am -23.2 -29.2 -34.6 34 0.6 S 11 15 6 8 1015.3 1014.8 0.0
27/02:48am 12.8 8.5 -1.8 36 5.8 S 11 13 6 7 1015.3 1014.8 0.0
27/02:30am -27.7 -33.8 -44.6 18 0.5 S 11 13 6 7 1015.4 1014.9 0.0
27/02:27am -27.7 -33.7 -43.9 20 0.5 S 11 13 6 7 1015.4 1014.9 0.0
27/02:26am -42.3 -48.4 -56.0 21 0.1 S 11 13 6 7 1015.4 1014.9 0.0
27/02:24am -32.6 -38.7 -52.0 13 0.3 S 11 13 6 7 1015.4 1014.9 0.0
27/02:23am -38.5 -44.6 -50.7 27 0.1 S 11 13 6 7 1015.4 1014.9 0.0
27/02:21am -32.0 -38.0 -42.3 35 0.2 SSE 11 13 6 7 1015.4 1014.9 0.0
27/02:19am -11.9 -17.8 -30.3 20 1.9 SSE 11 13 6 7 1015.4 1014.9 0.0
27/02:16am -18.9 -24.8 -29.3 39 0.8 SSE 11 11 6 6 1015.5 1015.0 0.0
27/02:15am -34.3 -40.4 -49.7 20 0.2 SSE 11 11 6 6 1015.5 1015.0 0.0
27/02:14am -21.9 -27.5 -36.5 25 0.8 SSE 9 11 5 6 1015.5 1015.0 0.0
27/02:13am -14.6 -20.1 -26.0 37 1.2 SSE 9 11 5 6 1015.5 1015.0 0.0
27/02:12am -30.7 -36.4 -46.2 21 0.4 SSE 9 11 5 6 1015.5 1015.0 0.0
27/02:11am -22.3 -28.0 -44.5 11 0.9 SSE 9 11 5 6 1015.5 1015.0 0.0
27/02:10am -13.5 -19.1 -32.8 18 1.8 SSE 9 11 5 6 1015.5 1015.0 0.0
27/02:08am -42.6 -48.3 -59.8 14 0.1 SSE 9 11 5 6 1015.5 1015.0 0.0
27/02:07am -32.8 -38.5 -44.1 32 0.2 SSE 9 11 5 6 1015.5 1015.0 0.0
27/02:06am -23.2 -28.8 -36.2 29 0.6 SSE 9 11 5 6 1015.5 1015.0 0.0
27/02:05am 13.4 8.9 -6.7 24 7.2 SSE 9 11 5 6 1015.6 1015.1 0.0
27/02:00am 19.4 15.5 -1.7 24 9.0 SSE 9 11 5 6 1015.6 1015.1 0.0
27/01:56am 19.6 15.7 -1.5 24 9.1 SSE 9 13 5 7 1015.6 1015.1 0.0
27/01:55am 11.5 6.8 -8.9 23 6.8 SSE 9 13 5 7 1015.7 1015.2 0.0
27/01:53am -11.0 -16.5 -30.5 18 2.1 S 9 13 5 7 1015.7 1015.2 0.0
27/01:51am -38.2 -43.9 -51.5 24 0.2 S 9 13 5 7 1015.7 1015.2 0.0
27/01:50am -29.5 -35.2 -59.9 4 0.5 S 9 13 5 7 1015.7 1015.2 0.0
27/01:32am -42.9 -48.6 -55.6 24 0.1 S 9 11 5 6 1015.9 1015.4 0.0
27/01:31am 12.6 8.0 -8.0 23 7.1 S 9 11 5 6 1015.9 1015.4 0.0
27/01:30am 19.9 16.0 -1.8 23 9.3 S 9 11 5 6 1015.9 1015.4 0.0
27/01:00am 20.2 16.2 -2.2 22 9.5 SSE 9 11 5 6 1016.2 1015.7 0.0
27/12:30am 21.6 17.6 -2.3 20 10.3 SSE 9 13 5 7 1016.2 1015.7 0.0
27/12:00am 21.4 16.9 -3.1 19 10.3 SSE 11 13 6 7 1016.4 1015.9 0.0
 
Date/Time
EDT
Temp
°C
App
Temp
°C
Dew
Point
Rel
Hum
%
Delta-T
°C
Wind Press
QNH
hPa
Press
MSL
hPa
Rain
since 9 am
mm
Dir
 
Spd
km/h
Gust
km/h
Spd
kts
Gust
kts
26/11:30pm 23.5 18.5 -4.6 15 11.8 SSE 13 15 7 8 1016.3 1015.8 0.0
26/11:00pm 24.2 19.2 -4.0 15 12.0 S 13 15 7 8 1016.0 1015.5 0.0
26/10:30pm 25.7 20.4 -3.8 14 12.8 S 15 19 8 10 1015.9 1015.4 0.0
26/10:00pm 26.6 21.3 -4.0 13 13.3 S 15 17 8 9 1015.7 1015.2 0.0
26/09:30pm 26.8 22.0 -2.9 14 13.2 S 13 15 7 8 1015.4 1014.9 0.0
26/09:00pm 27.1 22.3 -2.7 14 13.3 S 13 15 7 8 1015.0 1014.5 0.0
26/08:30pm 28.1 23.6 -2.9 13 13.9 S 11 13 6 7 1014.7 1014.2 0.0
26/08:00pm 30.3 25.4 -3.4 11 15.3 S 13 20 7 11 1014.3 1013.8 0.0
26/07:30pm 32.3 27.4 -3.2 10 16.4 SW 13 17 7 9 1014.0 1013.5 0.0
26/07:00pm 33.1 27.8 -4.0 9 17.0 SW 15 20 8 11 1013.6 1013.1 0.0
26/06:30pm 33.4 28.3 -2.3 10 16.9 WSW 15 22 8 12 1013.3 1012.8 0.0

Other Formats:

Comma delimited format used in spreadsheet applications
http://www.bom.gov.au/fwo/IDN60801/IDN60801.94703.axf

JavaScript Object Notation format (JSON) in row-major order
http://www.bom.gov.au/fwo/IDN60801/IDN60801.94703.json